Time;durP1;ratioP1;P1;durP2;ratioP2;P2;SDS_P1;SDS_P2;PMS_P1;PMS_P2;Temp;Humidity;BMP_temperature;BMP_pressure;BME280_temperature;BME280_humidity;BME280_pressure;Samples;Min_cycle;Max_cycle;Signal;HPM_P1;HPM_P2
2021/12/18 00:01:25;;;;;;;34.08;13.68;;;7.40;82.40;;;;;;5109940;28;20028;-83
2021/12/18 00:03:51;;;;;;;32.13;14.30;;;7.40;82.40;;;;;;5096761;28;20443;-83
2021/12/18 00:06:17;;;;;;;36.85;15.82;;;7.50;82.20;;;;;;5096606;28;20032;-83
2021/12/18 00:08:43;;;;;;;28.98;14.38;;;7.50;82.00;;;;;;5096773;28;20028;-83
2021/12/18 00:11:10;;;;;;;32.83;14.55;;;7.50;82.00;;;;;;5096590;28;20514;-83
2021/12/18 00:13:36;;;;;;;35.42;15.07;;;7.50;81.80;;;;;;5096650;28;20024;-83
2021/12/18 00:16:05;;;;;;;38.28;15.02;;;7.50;82.10;;;;;;5096221;28;20035;-83
2021/12/18 00:18:31;;;;;;;27.55;12.30;;;7.40;82.20;;;;;;5096808;28;20021;-83
2021/12/18 00:21:01;;;;;;;28.98;13.25;;;7.50;82.10;;;;;;5096369;28;20023;-83
2021/12/18 00:23:26;;;;;;;31.27;14.98;;;7.50;82.10;;;;;;5105943;28;20061;-82
2021/12/18 00:25:53;;;;;;;28.38;13.15;;;7.40;82.00;;;;;;5115108;28;20035;-83
2021/12/18 00:28:18;;;;;;;28.83;13.55;;;7.30;82.10;;;;;;5096340;28;20052;-82
2021/12/18 00:30:44;;;;;;;29.88;14.32;;;7.30;82.30;;;;;;5098067;28;20024;-83
2021/12/18 00:33:10;;;;;;;32.00;14.68;;;7.30;82.40;;;;;;5116679;28;20030;-82
2021/12/18 00:35:36;;;;;;;38.65;16.88;;;7.20;82.70;;;;;;5131546;27;20054;-83
2021/12/18 00:38:04;;;;;;;31.85;14.20;;;7.20;82.40;;;;;;5119165;27;20032;-83
2021/12/18 00:40:43;;;;;;;36.92;14.60;;;7.20;82.60;;;;;;5095995;28;20020;-83
2021/12/18 00:43:25;;;;;;;39.45;15.10;;;7.30;82.50;;;;;;5096281;28;20019;-83
2021/12/18 00:45:51;;;;;;;34.65;14.00;;;7.20;82.90;;;;;;5095998;28;20071;-82
2021/12/18 00:48:17;;;;;;;34.10;15.13;;;7.10;82.90;;;;;;5094743;28;20514;-82
2021/12/18 00:50:43;;;;;;;37.33;15.50;;;7.10;83.30;;;;;;5094389;28;20564;-83
2021/12/18 00:53:08;;;;;;;37.10;16.33;;;7.10;83.20;;;;;;5094262;28;21165;-82
2021/12/18 00:55:36;;;;;;;32.70;14.50;;;7.10;82.90;;;;;;5096102;28;20059;-82
2021/12/18 00:58:03;;;;;;;32.10;13.68;;;7.10;82.60;;;;;;5094126;28;20051;-83
2021/12/18 01:00:29;;;;;;;32.13;14.65;;;7.00;83.20;;;;;;5111121;28;20032;-83
2021/12/18 01:03:00;;;;;;;38.28;14.77;;;7.00;83.30;;;;;;5112518;28;20016;-83
2021/12/18 01:05:27;;;;;;;38.72;16.48;;;7.00;83.30;;;;;;5113041;28;20454;-83
2021/12/18 01:07:56;;;;;;;36.45;17.52;;;7.10;83.10;;;;;;5095540;28;20509;-82
2021/12/18 01:10:38;;;;;;;35.45;14.80;;;7.00;83.10;;;;;;5094066;28;20020;-83
2021/12/18 01:13:07;;;;;;;40.65;16.00;;;7.10;83.10;;;;;;5095626;28;20069;-83
2021/12/18 01:15:41;;;;;;;37.92;16.13;;;7.00;83.10;;;;;;5101160;28;20059;-83
2021/12/18 01:24:03;;;;;;;29.15;13.80;;;6.90;83.10;;;;;;5116121;28;20503;-83
2021/12/18 01:26:29;;;;;;;32.17;14.50;;;6.90;83.50;;;;;;5115708;28;20055;-83
2021/12/18 01:28:55;;;;;;;38.53;15.85;;;6.90;83.30;;;;;;5115431;28;20110;-82
2021/12/18 01:31:21;;;;;;;33.78;15.77;;;6.90;83.50;;;;;;5095627;28;20115;-83
2021/12/18 01:33:46;;;;;;;36.15;14.93;;;7.00;83.10;;;;;;5095518;28;20490;-83
2021/12/18 01:36:12;;;;;;;36.22;15.50;;;6.90;83.20;;;;;;5133086;27;20023;-83
2021/12/18 01:38:38;;;;;;;30.83;14.10;;;6.90;83.10;;;;;;5115573;28;20083;-83
2021/12/18 01:41:04;;;;;;;37.20;15.57;;;6.90;83.40;;;;;;5114163;28;20572;-83
2021/12/18 01:53:49;;;;;;;38.80;15.63;;;6.90;83.20;;;;;;5095274;28;20450;-82
2021/12/18 01:56:15;;;;;;;32.95;15.25;;;6.90;83.20;;;;;;5095062;28;20076;-83
2021/12/18 01:58:44;;;;;;;30.85;14.95;;;6.90;83.10;;;;;;5094476;28;20044;-82
2021/12/18 02:01:11;;;;;;;36.85;15.60;;;6.90;83.00;;;;;;5095037;28;20078;-82
2021/12/18 02:03:53;;;;;;;35.53;15.80;;;6.80;82.60;;;;;;5094819;28;20085;-83
2021/12/18 02:06:20;;;;;;;30.80;14.15;;;6.80;83.00;;;;;;5094839;28;20055;-83
2021/12/18 02:08:46;;;;;;;33.22;13.30;;;6.80;83.00;;;;;;5094846;28;20024;-82
2021/12/18 02:21:39;;;;;;;36.35;15.57;;;6.60;83.90;;;;;;5119379;28;20053;-83
2021/12/18 02:24:05;;;;;;;30.17;14.88;;;6.60;83.70;;;;;;5114285;28;20435;-82
2021/12/18 02:26:33;;;;;;;36.15;15.90;;;6.50;83.70;;;;;;5119232;28;20031;-82
2021/12/18 02:29:02;;;;;;;30.73;13.98;;;6.60;83.50;;;;;;5117755;28;20028;-82
2021/12/18 02:31:28;;;;;;;28.15;14.88;;;6.60;83.50;;;;;;5105237;28;20417;-82
2021/12/18 02:33:54;;;;;;;35.22;16.55;;;6.60;83.60;;;;;;5100120;27;20022;-83
2021/12/18 02:36:25;;;;;;;39.35;16.98;;;6.60;83.70;;;;;;5139737;27;20084;-83
2021/12/18 02:41:33;;;;;;;29.02;14.60;;;6.60;83.30;;;;;;5098645;28;19904;-82
2021/12/18 02:44:03;;;;;;;37.72;15.48;;;6.60;83.60;;;;;;5097187;28;20105;-83
2021/12/18 02:46:29;;;;;;;30.42;14.75;;;6.60;83.20;;;;;;5098154;28;20056;-83
2021/12/18 02:48:56;;;;;;;40.80;15.85;;;6.60;83.60;;;;;;5098249;28;20035;-83
2021/12/18 02:51:23;;;;;;;33.17;14.43;;;6.60;83.20;;;;;;5102240;28;20047;-82
2021/12/18 02:53:51;;;;;;;36.90;14.43;;;6.60;83.20;;;;;;5119033;28;20020;-82
2021/12/18 02:56:23;;;;;;;41.83;16.33;;;6.60;83.10;;;;;;5114152;28;20043;-82
2021/12/18 02:58:51;;;;;;;41.67;16.42;;;6.70;82.80;;;;;;5097788;28;20079;-82
2021/12/18 03:01:21;;;;;;;41.00;15.93;;;6.60;82.80;;;;;;5098302;28;20505;-82
2021/12/18 03:03:47;;;;;;;39.03;15.43;;;6.60;82.80;;;;;;5098234;28;20028;-82
2021/12/18 03:06:39;;;;;;;37.85;15.95;;;6.50;83.00;;;;;;5098178;28;20082;-83
2021/12/18 03:25:10;;;;;;;38.20;16.92;;;6.40;83.20;;;;;;5100409;28;20042;-82
2021/12/18 03:27:36;;;;;;;37.80;16.40;;;6.40;83.20;;;;;;5105989;28;20024;-83
2021/12/18 03:30:03;;;;;;;35.97;15.15;;;6.30;83.50;;;;;;5097664;28;20138;-82
2021/12/18 03:32:29;;;;;;;45.17;16.15;;;6.30;83.50;;;;;;5097759;28;20032;-83
2021/12/18 03:34:55;;;;;;;36.10;16.48;;;6.30;83.40;;;;;;5115843;27;20027;-83
2021/12/18 03:37:21;;;;;;;36.33;15.35;;;6.30;83.40;;;;;;5138606;27;20091;-82
2021/12/18 03:39:47;;;;;;;39.30;16.83;;;6.30;83.10;;;;;;5138493;27;20027;-83
2021/12/18 03:42:13;;;;;;;33.70;16.35;;;6.30;83.20;;;;;;5126225;27;20020;-82
2021/12/18 03:44:39;;;;;;;35.63;15.40;;;6.30;83.20;;;;;;5097476;28;20035;-83
2021/12/18 03:47:05;;;;;;;33.92;16.60;;;6.30;83.00;;;;;;5101700;28;20028;-82
2021/12/18 03:49:31;;;;;;;37.08;16.00;;;6.40;83.00;;;;;;5097268;28;20029;-83
2021/12/18 03:52:24;;;;;;;;;;;;;;;;;;;;;
2021/12/18 03:54:50;;;;;;;38.10;16.58;;;6.40;82.80;;;;;;5097372;28;20028;-83
2021/12/18 03:57:16;;;;;;;35.63;15.43;;;6.30;82.40;;;;;;5097155;28;20051;-82
2021/12/18 03:59:42;;;;;;;37.70;14.88;;;6.30;82.80;;;;;;5097113;28;20054;-83
2021/12/18 04:02:08;;;;;;;33.55;16.17;;;6.30;82.50;;;;;;5097027;28;20032;-83
2021/12/18 04:04:34;;;;;;;39.05;16.27;;;6.30;82.30;;;;;;5097088;28;20039;-82
2021/12/18 04:07:00;;;;;;;36.78;15.85;;;6.30;82.30;;;;;;5096838;28;20064;-83
2021/12/18 04:09:30;;;;;;;29.45;14.27;;;6.20;82.50;;;;;;5096808;28;20028;-82
2021/12/18 04:11:57;;;;;;;34.60;15.90;;;6.20;82.50;;;;;;5096659;28;20048;-83
2021/12/18 04:14:23;;;;;;;38.50;14.82;;;6.20;82.50;;;;;;5096912;28;20035;-82
2021/12/18 04:16:49;;;;;;;31.40;14.20;;;6.20;82.50;;;;;;5096765;28;20020;-82
2021/12/18 04:19:14;;;;;;;26.40;12.65;;;6.20;82.80;;;;;;5096729;28;20071;-82
2021/12/18 04:21:40;;;;;;;38.25;16.25;;;6.20;82.60;;;;;;5096891;28;20028;-83
2021/12/18 04:24:07;;;;;;;30.83;13.57;;;6.10;82.50;;;;;;5096682;28;20035;-83
2021/12/18 04:26:35;;;;;;;32.17;15.57;;;6.10;82.60;;;;;;5095841;28;20277;-83
2021/12/18 04:29:03;;;;;;;31.33;14.00;;;6.10;82.70;;;;;;5096343;28;20028;-83
2021/12/18 04:31:29;;;;;;;29.23;14.23;;;6.10;82.60;;;;;;5096723;28;20117;-83
2021/12/18 04:33:55;;;;;;;34.78;15.20;;;6.10;82.40;;;;;;5098225;28;20371;-82
2021/12/18 04:36:21;;;;;;;37.78;14.07;;;6.10;82.60;;;;;;5137425;27;20026;-83
2021/12/18 04:38:48;;;;;;;35.88;14.10;;;6.10;82.70;;;;;;5105866;27;20109;-83
2021/12/18 04:41:21;;;;;;;36.03;15.88;;;6.10;82.50;;;;;;5096129;28;20499;-83
2021/12/18 04:43:47;;;;;;;35.95;16.05;;;6.00;82.50;;;;;;5096340;28;20059;-83
2021/12/18 04:46:13;;;;;;;37.20;16.33;;;6.10;82.70;;;;;;5096190;28;20020;-83
2021/12/18 04:48:58;;;;;;;33.78;14.52;;;6.10;82.30;;;;;;5095769;28;20118;-83
2021/12/18 04:51:24;;;;;;;31.67;14.57;;;6.00;82.20;;;;;;5096139;28;20059;-82
2021/12/18 04:53:50;;;;;;;35.80;14.63;;;6.10;82.10;;;;;;5096230;28;20028;-83
2021/12/18 04:56:15;;;;;;;34.65;14.35;;;6.00;82.20;;;;;;5096087;28;20389;-83
2021/12/18 04:58:41;;;;;;;28.02;13.75;;;6.00;82.30;;;;;;5094096;28;20071;-83
2021/12/18 05:01:07;;;;;;;33.70;15.32;;;6.10;82.20;;;;;;5095917;28;20028;-83
2021/12/18 05:03:34;;;;;;;33.58;14.38;;;6.10;81.90;;;;;;5096109;28;20031;-83
2021/12/18 05:06:00;;;;;;;30.92;14.18;;;6.10;82.00;;;;;;5094615;28;20050;-83
2021/12/18 05:08:26;;;;;;;28.23;13.80;;;6.00;82.10;;;;;;5095708;28;20051;-83
2021/12/18 05:10:52;;;;;;;34.30;14.52;;;6.00;82.00;;;;;;5095616;28;20050;-83
2021/12/18 05:13:18;;;;;;;37.90;14.43;;;6.00;82.00;;;;;;5095360;28;20070;-83
2021/12/18 05:15:43;;;;;;;32.55;14.20;;;6.00;82.10;;;;;;5095706;28;20099;-83
2021/12/18 05:18:09;;;;;;;34.35;15.52;;;5.90;82.10;;;;;;5095342;28;20088;-83
2021/12/18 05:20:35;;;;;;;32.53;14.38;;;5.90;82.10;;;;;;5095763;28;20021;-83
2021/12/18 05:23:03;;;;;;;34.72;15.13;;;5.80;82.20;;;;;;5095427;28;20462;-83
2021/12/18 05:25:29;;;;;;;34.05;13.73;;;5.90;82.30;;;;;;5095448;28;20031;-82
2021/12/18 05:27:55;;;;;;;39.70;15.65;;;5.80;82.40;;;;;;5095616;28;20032;-83
2021/12/18 05:30:21;;;;;;;31.40;15.57;;;5.80;82.20;;;;;;5095306;28;20485;-83
2021/12/18 05:32:46;;;;;;;34.80;15.48;;;5.80;82.40;;;;;;5095390;28;20028;-83
2021/12/18 05:35:15;;;;;;;30.52;13.77;;;5.80;82.70;;;;;;5118422;27;20018;-82
2021/12/18 05:37:47;;;;;;;38.08;15.45;;;5.70;82.50;;;;;;5110923;27;20024;-82
2021/12/18 05:40:24;;;;;;;32.85;14.70;;;5.80;82.20;;;;;;5095446;28;20103;-83
2021/12/18 05:42:51;;;;;;;27.08;14.48;;;5.80;82.30;;;;;;5102909;28;20080;-83
2021/12/18 05:45:18;;;;;;;30.15;14.20;;;5.80;82.10;;;;;;5111754;28;20028;-83
2021/12/18 05:47:44;;;;;;;30.92;14.95;;;5.70;82.00;;;;;;5095399;28;20051;-82
2021/12/18 05:50:13;;;;;;;31.08;13.43;;;5.80;82.30;;;;;;5093397;28;20132;-83
2021/12/18 05:52:40;;;;;;;32.22;14.55;;;5.70;82.20;;;;;;5093458;28;20024;-83
2021/12/18 05:55:07;;;;;;;37.40;16.17;;;5.70;82.30;;;;;;5093350;28;20023;-83
2021/12/18 05:57:33;;;;;;;33.13;15.57;;;5.70;82.30;;;;;;5093512;28;20024;-83
2021/12/18 06:00:06;;;;;;;35.65;15.90;;;5.70;82.30;;;;;;5095260;28;20044;-83
2021/12/18 06:02:31;;;;;;;32.60;15.45;;;5.60;82.10;;;;;;5094997;28;20117;-83
2021/12/18 06:04:57;;;;;;;30.17;15.93;;;5.60;82.50;;;;;;5095061;28;20516;-83
2021/12/18 06:07:30;;;;;;;27.20;15.15;;;5.60;82.20;;;;;;5094854;28;20032;-83
2021/12/18 06:09:58;;;;;;;32.88;14.82;;;5.70;82.20;;;;;;5094590;28;20029;-83
2021/12/18 06:12:24;;;;;;;36.22;16.77;;;5.50;82.10;;;;;;5094953;28;20037;-83
2021/12/18 06:14:51;;;;;;;27.85;14.05;;;5.50;82.20;;;;;;5094994;28;20021;-83
2021/12/18 06:17:17;;;;;;;32.00;14.07;;;5.50;82.10;;;;;;5094864;28;20032;-83
2021/12/18 06:19:42;;;;;;;61.83;32.60;;;5.50;82.00;;;;;;5094896;28;20028;-83
2021/12/18 06:22:08;;;;;;;63.83;31.00;;;5.60;82.10;;;;;;5094872;28;20043;-83
2021/12/18 06:24:34;;;;;;;52.63;27.10;;;5.50;81.80;;;;;;5094875;28;20076;-83
2021/12/18 06:27:00;;;;;;;46.78;24.88;;;5.50;81.70;;;;;;5094532;28;20500;-83
2021/12/18 06:29:25;;;;;;;61.40;33.28;;;5.50;82.00;;;;;;5094607;28;20024;-83
2021/12/18 06:31:51;;;;;;;54.70;28.30;;;5.50;82.10;;;;;;5094713;28;20104;-83
2021/12/18 06:34:17;;;;;;;49.33;24.80;;;5.50;82.10;;;;;;5102635;28;20023;-83
2021/12/18 06:36:43;;;;;;;46.25;21.90;;;5.40;82.10;;;;;;5135648;28;20099;-83
2021/12/18 06:39:09;;;;;;;38.72;21.40;;;5.40;82.00;;;;;;5135588;27;20488;-83
2021/12/18 06:41:35;;;;;;;41.08;20.13;;;5.50;81.90;;;;;;5107138;27;20088;-83
2021/12/18 06:44:00;;;;;;;41.92;16.77;;;5.40;81.90;;;;;;5094673;28;20035;-83
2021/12/18 06:46:26;;;;;;;34.25;16.45;;;5.50;81.90;;;;;;5094252;28;20309;-83
2021/12/18 06:48:52;;;;;;;37.92;17.73;;;5.50;81.80;;;;;;5094360;28;20028;-83
2021/12/18 06:51:21;;;;;;;33.75;16.25;;;5.40;81.80;;;;;;5103180;28;20063;-83
2021/12/18 06:53:47;;;;;;;40.75;18.33;;;5.40;81.80;;;;;;5094407;28;20020;-82
2021/12/18 06:56:13;;;;;;;34.13;17.05;;;5.30;81.80;;;;;;5094499;28;20020;-82
2021/12/18 08:09:07;;;;;;;37.83;17.30;;;3.20;88.90;;;;;;5071454;28;20386;-84
2021/12/18 08:11:35;;;;;;;31.73;14.65;;;3.40;88.70;;;;;;5055512;28;20029;-81
2021/12/18 08:14:03;;;;;;;35.08;16.10;;;3.70;88.30;;;;;;5052105;28;20028;-80
2021/12/18 08:16:50;;;;;;;;;;;;;;;;;;;;;
2021/12/18 08:19:16;;;;;;;31.42;16.92;;;4.40;86.40;;;;;;5058246;28;20021;-81
2021/12/18 08:21:42;;;;;;;49.45;21.85;;;4.60;85.50;;;;;;5061089;28;20072;-78
2021/12/18 08:24:07;;;;;;;43.70;21.85;;;4.80;84.80;;;;;;5062250;28;20039;-81
2021/12/18 08:26:35;;;;;;;41.67;19.52;;;4.90;84.20;;;;;;5059964;28;20113;-81
2021/12/18 08:29:01;;;;;;;49.90;22.90;;;5.00;83.70;;;;;;5052617;28;20394;-87
2021/12/18 08:31:27;;;;;;;54.67;23.92;;;5.10;83.50;;;;;;5054887;28;20029;-86
2021/12/18 08:33:52;;;;;;;41.20;19.35;;;5.20;83.10;;;;;;5052029;28;20483;-85
2021/12/18 08:36:18;;;;;;;46.83;22.45;;;5.30;82.70;;;;;;5036145;28;20148;-82
2021/12/18 08:38:44;;;;;;;46.22;18.75;;;5.30;82.60;;;;;;5031928;28;20108;-85
2021/12/18 08:41:11;;;;;;;30.45;15.43;;;5.30;82.30;;;;;;5030235;28;20032;-86
2021/12/18 08:43:36;;;;;;;35.80;17.75;;;5.40;82.10;;;;;;5031644;28;20546;-85
2021/12/18 08:46:02;;;;;;;39.80;18.23;;;5.50;82.00;;;;;;5031698;28;20108;-85
2021/12/18 08:48:28;;;;;;;36.58;17.10;;;5.50;81.90;;;;;;5031626;28;20026;-87
2021/12/18 08:50:54;;;;;;;34.88;16.42;;;5.60;81.70;;;;;;5045357;28;20037;-86
2021/12/18 08:53:19;;;;;;;36.05;17.13;;;5.60;81.60;;;;;;5051164;28;20060;-87
2021/12/18 08:55:45;;;;;;;35.42;17.33;;;5.70;81.40;;;;;;5050835;28;20134;-87
2021/12/18 08:58:11;;;;;;;33.63;16.33;;;5.70;81.30;;;;;;5031531;28;20036;-86
2021/12/18 09:00:37;;;;;;;31.17;15.45;;;5.70;81.20;;;;;;5046750;28;20056;-87
2021/12/18 09:03:04;;;;;;;30.13;14.63;;;5.80;81.20;;;;;;5047203;28;20075;-86
2021/12/18 09:05:30;;;;;;;30.45;14.57;;;5.80;81.10;;;;;;5031150;28;20018;-86
2021/12/18 09:07:56;;;;;;;32.97;16.35;;;5.80;81.00;;;;;;5051062;28;20060;-86
2021/12/18 09:10:23;;;;;;;24.73;14.15;;;5.90;81.00;;;;;;5039065;28;20063;-87
2021/12/18 09:12:49;;;;;;;30.17;14.05;;;5.90;80.70;;;;;;5042605;28;20065;-87
2021/12/18 09:15:15;;;;;;;31.77;14.07;;;6.00;80.50;;;;;;5042795;28;20381;-86
2021/12/18 09:17:41;;;;;;;29.88;15.07;;;6.00;80.50;;;;;;5050156;28;20052;-86
2021/12/18 09:20:07;;;;;;;32.15;15.75;;;6.10;80.10;;;;;;5039089;28;20075;-86
2021/12/18 09:22:33;;;;;;;23.70;13.02;;;6.20;79.90;;;;;;5036663;28;20053;-85
2021/12/18 09:24:59;;;;;;;27.88;14.80;;;6.30;79.30;;;;;;5035112;28;20443;-86
2021/12/18 09:27:25;;;;;;;25.95;13.15;;;6.30;79.30;;;;;;5036457;28;20383;-86
2021/12/18 09:29:51;;;;;;;27.50;13.07;;;6.40;79.30;;;;;;5036241;28;20037;-86
2021/12/18 09:32:17;;;;;;;25.60;12.57;;;6.40;78.80;;;;;;5034841;28;20083;-86
2021/12/18 09:34:42;;;;;;;28.05;13.88;;;6.50;79.00;;;;;;5038663;28;20017;-85
2021/12/18 09:37:09;;;;;;;30.58;15.90;;;6.50;78.60;;;;;;5034005;28;20068;-86
2021/12/18 09:39:35;;;;;;;27.45;13.60;;;6.60;78.70;;;;;;5036226;28;20025;-85
2021/12/18 09:42:01;;;;;;;33.63;16.63;;;6.70;78.30;;;;;;5035413;28;20052;-87
2021/12/18 09:44:29;;;;;;;26.90;13.90;;;6.70;78.20;;;;;;5036116;28;20021;-86
2021/12/18 09:46:56;;;;;;;27.13;12.52;;;6.80;77.90;;;;;;5035887;28;20053;-86
2021/12/18 09:49:22;;;;;;;27.90;14.18;;;6.80;77.50;;;;;;5034111;28;20021;-86
2021/12/18 09:51:49;;;;;;;26.60;13.38;;;6.90;77.10;;;;;;5035974;28;20376;-86
2021/12/18 09:54:15;;;;;;;29.67;13.57;;;6.90;76.90;;;;;;5046031;28;20049;-86
2021/12/18 09:56:42;;;;;;;24.20;12.18;;;7.00;77.10;;;;;;5043984;28;20036;-87
2021/12/18 09:59:08;;;;;;;27.35;13.52;;;7.10;77.00;;;;;;5047325;28;20017;-86
2021/12/18 10:01:35;;;;;;;30.85;14.98;;;7.20;77.00;;;;;;5035723;28;20096;-86
2021/12/18 10:04:02;;;;;;;25.02;13.25;;;7.20;76.70;;;;;;5035756;28;20021;-86
2021/12/18 10:06:32;;;;;;;25.85;13.75;;;7.20;76.60;;;;;;5035514;28;20019;-86
2021/12/18 10:08:58;;;;;;;22.98;12.43;;;7.20;75.60;;;;;;5030169;28;20104;-86
2021/12/18 10:11:24;;;;;;;28.83;13.68;;;7.20;75.60;;;;;;5035678;28;20514;-86
2021/12/18 10:13:53;;;;;;;22.20;13.70;;;7.30;76.10;;;;;;5035721;28;20026;-86
2021/12/18 10:16:20;;;;;;;32.93;15.37;;;7.50;76.20;;;;;;5036803;28;20021;-78
2021/12/18 10:18:46;;;;;;;25.52;13.10;;;7.50;76.00;;;;;;5030389;28;20109;-87
2021/12/18 10:21:16;;;;;;;22.58;11.38;;;7.60;75.60;;;;;;5017326;28;20045;-88
2021/12/18 10:23:43;;;;;;;22.75;13.18;;;7.60;74.70;;;;;;5017969;28;20484;-88
2021/12/18 10:26:35;;;;;;;22.98;11.65;;;7.70;75.40;;;;;;5032755;28;20017;-85
2021/12/18 10:29:00;;;;;;;22.70;12.73;;;7.70;74.60;;;;;;5036621;28;20678;-86
2021/12/18 10:31:46;;;;;;;21.35;12.00;;;7.80;74.70;;;;;;5031320;28;20030;-87
2021/12/18 10:34:20;;;;;;;18.67;10.90;;;7.90;74.50;;;;;;5035645;28;20025;-83
2021/12/18 10:37:08;;;;;;;23.60;12.48;;;7.90;74.40;;;;;;5032701;28;20037;-86
2021/12/18 10:39:36;;;;;;;23.77;13.40;;;8.00;73.70;;;;;;5029454;28;20014;-88
2021/12/18 10:42:18;;;;;;;21.90;11.48;;;8.10;74.00;;;;;;5016534;28;20026;-85
2021/12/18 10:45:00;;;;;;;23.27;11.63;;;8.20;73.60;;;;;;5016282;28;20022;-85
2021/12/18 10:47:40;;;;;;;19.98;11.55;;;8.20;73.20;;;;;;5016255;28;20166;-85
2021/12/18 10:50:24;;;;;;;21.15;10.85;;;8.30;72.90;;;;;;5016302;28;20392;-85
2021/12/18 10:53:30;;;;;;;18.88;10.48;;;8.30;72.70;;;;;;5016116;28;20057;-85
2021/12/18 10:55:59;;;;;;;21.55;10.70;;;8.30;71.70;;;;;;5025008;28;20110;-85
2021/12/18 10:58:26;;;;;;;21.17;11.30;;;8.40;72.10;;;;;;5015815;28;20073;-82
2021/12/18 11:00:58;;;;;;;21.85;11.05;;;8.50;72.60;;;;;;5015683;28;20094;-83
2021/12/18 11:03:31;;;;;;;19.40;11.35;;;8.60;72.00;;;;;;5016129;28;20022;-77
2021/12/18 11:06:15;;;;;;;21.40;10.00;;;8.50;71.40;;;;;;5015858;28;20029;-76
2021/12/18 11:08:58;;;;;;;20.42;10.27;;;8.60;70.90;;;;;;5015757;28;20061;-76
2021/12/18 11:14:09;;;;;;;14.15;7.18;;;8.80;70.80;;;;;;5024166;28;20065;-76
2021/12/18 11:16:36;;;;;;;19.70;9.90;;;8.80;69.30;;;;;;5015855;28;20100;-76
2021/12/18 11:19:06;;;;;;;19.08;10.30;;;8.80;70.30;;;;;;5015537;28;20041;-76
2021/12/18 11:21:32;;;;;;;;;;;8.90;69.20;;;;;;5016235;28;20018;-77
2021/12/18 11:24:07;;;;;;;13.10;8.43;;;9.00;70.30;;;;;;5012526;28;19996;-76
2021/12/18 11:26:54;;;;;;;17.25;9.10;;;9.10;70.00;;;;;;5034632;28;20032;-75
2021/12/18 11:29:23;;;;;;;14.07;8.65;;;9.10;70.00;;;;;;5036073;28;20116;-79
2021/12/18 11:31:49;;;;;;;10.55;6.38;;;9.20;68.20;;;;;;5040027;28;20079;-78
2021/12/18 11:34:16;;;;;;;16.77;9.45;;;9.20;67.00;;;;;;5026133;28;20022;-82
2021/12/18 11:36:44;;;;;;;21.13;9.75;;;9.20;67.00;;;;;;5023110;28;20578;-85
2021/12/18 11:39:12;;;;;;;24.67;13.20;;;9.20;67.70;;;;;;5030421;28;20514;-80
2021/12/18 11:41:38;;;;;;;17.73;9.93;;;9.30;68.60;;;;;;5023100;28;20060;-87
2021/12/18 11:44:31;;;;;;;16.17;8.52;;;9.40;67.30;;;;;;5034218;28;20025;-84
2021/12/18 11:46:59;;;;;;;11.23;6.70;;;9.50;66.70;;;;;;5026132;28;20087;-84
2021/12/18 11:49:42;;;;;;;14.05;7.82;;;9.40;65.20;;;;;;5022151;28;20376;-82
2021/12/18 11:52:07;;;;;;;17.65;9.27;;;9.50;65.30;;;;;;5028584;28;20121;-82
2021/12/18 11:55:11;;;;;;;24.75;11.23;;;9.60;66.00;;;;;;5033176;28;20074;-80
2021/12/18 11:57:41;;;;;;;16.92;10.93;;;9.60;65.50;;;;;;5028488;28;20033;-82
2021/12/18 12:00:21;;;;;;;18.20;10.07;;;9.60;65.30;;;;;;5031669;28;20034;-83
2021/12/18 12:02:55;;;;;;;15.43;7.88;;;9.70;65.50;;;;;;5022556;28;20042;-84
2021/12/18 12:05:41;;;;;;;14.95;7.78;;;9.80;64.50;;;;;;5026703;28;20403;-79
2021/12/18 12:08:41;;;;;;;14.27;8.45;;;9.80;64.10;;;;;;5025573;28;20058;-83
2021/12/18 12:11:27;;;;;;;12.93;7.72;;;9.90;64.10;;;;;;5044235;28;20094;-87
2021/12/18 12:14:13;;;;;;;10.75;6.30;;;9.90;63.40;;;;;;5035372;28;20033;-87
2021/12/18 12:16:45;;;;;;;12.77;7.13;;;9.90;62.60;;;;;;5026704;28;20083;-86
2021/12/18 12:19:12;;;;;;;14.68;5.93;;;10.00;62.30;;;;;;5020834;28;20085;-85
2021/12/18 12:21:46;;;;;;;13.27;7.05;;;10.00;62.40;;;;;;5037868;28;20041;-83
2021/12/18 12:24:13;;;;;;;12.18;6.78;;;10.10;62.90;;;;;;5029644;28;20047;-84
2021/12/18 12:26:39;;;;;;;12.98;7.60;;;10.10;61.70;;;;;;5036433;28;20056;-84
2021/12/18 12:29:07;;;;;;;10.63;6.85;;;10.10;61.40;;;;;;5046162;28;20484;-83
2021/12/18 12:31:34;;;;;;;12.73;7.03;;;10.20;62.10;;;;;;5029539;28;20029;-83
2021/12/18 12:34:20;;;;;;;15.82;7.70;;;10.30;62.10;;;;;;5032119;28;20395;-83
2021/12/18 12:36:46;;;;;;;14.20;7.57;;;10.30;63.00;;;;;;5033141;28;20056;-83
2021/12/18 12:39:14;;;;;;;15.30;9.40;;;10.50;62.10;;;;;;5031338;28;20392;-83
2021/12/18 12:41:42;;;;;;;14.88;8.25;;;10.50;61.90;;;;;;5032069;28;20030;-77
2021/12/18 12:44:27;;;;;;;14.85;7.03;;;10.40;61.40;;;;;;5028991;28;20495;-78
2021/12/18 12:47:27;;;;;;;12.10;6.97;;;10.50;61.70;;;;;;5030221;28;20025;-77
2021/12/18 12:50:13;;;;;;;11.65;7.47;;;10.60;60.30;;;;;;5031978;28;20026;-77
2021/12/18 12:52:53;;;;;;;11.63;7.50;;;10.60;61.60;;;;;;5009554;28;20038;-77
2021/12/18 12:55:21;;;;;;;17.35;7.32;;;10.70;61.20;;;;;;5017619;28;20029;-77
2021/12/18 12:57:50;;;;;;;18.83;8.88;;;10.70;60.80;;;;;;5017819;28;20060;-77
2021/12/18 13:00:22;;;;;;;13.05;7.85;;;10.80;61.40;;;;;;5019852;28;20025;-75
2021/12/18 13:02:59;;;;;;;13.98;8.10;;;10.80;60.50;;;;;;5027770;28;20500;-76
2021/12/18 13:05:27;;;;;;;14.02;7.55;;;10.80;61.10;;;;;;5018109;28;20022;-77
2021/12/18 13:07:57;;;;;;;13.35;6.97;;;10.80;61.40;;;;;;5018163;28;20049;-77
2021/12/18 13:10:24;;;;;;;13.43;8.05;;;10.80;60.50;;;;;;5018335;28;20026;-76
2021/12/18 13:12:55;;;;;;;15.25;8.15;;;10.80;60.30;;;;;;5018296;28;20041;-77
2021/12/18 13:15:21;;;;;;;11.48;6.82;;;10.80;61.50;;;;;;5024860;28;20029;-78
2021/12/18 13:17:48;;;;;;;13.77;7.95;;;10.80;60.80;;;;;;5018129;28;20495;-78
2021/12/18 13:20:14;;;;;;;12.13;8.00;;;10.80;60.90;;;;;;5018068;28;20101;-78
2021/12/18 13:22:39;;;;;;;12.60;7.75;;;10.80;60.40;;;;;;5016166;28;20076;-79
2021/12/18 13:25:11;;;;;;;12.50;7.60;;;10.80;60.50;;;;;;5033065;28;20100;-78
2021/12/18 13:27:40;;;;;;;11.38;7.80;;;10.80;60.30;;;;;;5032788;28;20488;-79
2021/12/18 13:30:18;;;;;;;12.38;7.25;;;10.80;60.10;;;;;;5033311;28;20038;-78
2021/12/18 13:32:59;;;;;;;11.43;6.80;;;10.80;59.60;;;;;;5037420;28;20021;-78
2021/12/18 13:35:27;;;;;;;12.02;6.97;;;10.80;59.50;;;;;;5050398;28;20028;-76
2021/12/18 13:37:59;;;;;;;13.95;8.48;;;10.80;59.70;;;;;;5052647;28;20192;-75
2021/12/18 13:40:27;;;;;;;10.93;6.75;;;10.80;58.80;;;;;;5017749;28;20029;-78
2021/12/18 13:43:28;;;;;;;17.98;9.38;;;10.80;59.50;;;;;;5015777;28;20022;-76
2021/12/18 13:45:58;;;;;;;15.35;9.05;;;10.80;59.10;;;;;;5031743;28;20108;-76
2021/12/18 13:48:30;;;;;;;12.18;7.40;;;10.80;59.10;;;;;;5042422;28;20397;-76
2021/12/18 13:51:06;;;;;;;15.30;6.50;;;10.80;58.60;;;;;;5049422;28;20037;-76
2021/12/18 13:53:33;;;;;;;12.30;8.05;;;10.80;57.90;;;;;;5030022;28;20044;-75
2021/12/18 13:56:05;;;;;;;14.15;7.38;;;10.80;58.80;;;;;;5017168;28;20373;-76
2021/12/18 13:58:37;;;;;;;14.98;7.13;;;10.80;58.40;;;;;;5016328;28;20033;-75
2021/12/18 14:01:18;;;;;;;10.18;6.30;;;10.80;58.50;;;;;;5017119;28;20041;-76
2021/12/18 14:03:52;;;;;;;11.60;5.80;;;10.80;58.90;;;;;;5017244;28;20030;-76
2021/12/18 14:06:23;;;;;;;14.00;5.97;;;10.90;58.40;;;;;;5048777;28;20025;-76
2021/12/18 14:08:55;;;;;;;7.82;5.40;;;10.80;57.70;;;;;;5016463;28;20080;-75
2021/12/18 14:11:27;;;;;;;8.68;4.90;;;10.80;57.90;;;;;;5016884;28;20073;-76
2021/12/18 14:13:59;;;;;;;9.43;5.25;;;10.80;58.20;;;;;;5026186;28;20033;-76
2021/12/18 14:16:25;;;;;;;9.35;5.78;;;10.80;58.00;;;;;;5031289;28;20392;-76
2021/12/18 14:19:08;;;;;;;10.50;6.10;;;10.80;58.00;;;;;;5016278;28;20041;-75
2021/12/18 14:21:45;;;;;;;8.80;5.47;;;10.80;58.00;;;;;;5016932;28;20029;-76
2021/12/18 14:24:16;;;;;;;11.10;5.80;;;10.80;58.40;;;;;;5016705;28;20034;-76
2021/12/18 14:27:00;;;;;;;9.25;5.97;;;10.80;58.50;;;;;;5016792;28;20028;-76
2021/12/18 14:29:31;;;;;;;9.13;5.20;;;10.90;58.20;;;;;;5029248;28;20068;-76
2021/12/18 14:31:58;;;;;;;7.40;5.07;;;10.80;58.60;;;;;;5037174;28;20030;-77
2021/12/18 14:34:26;;;;;;;9.10;5.18;;;10.80;59.10;;;;;;5025634;28;20066;-76
2021/12/18 14:37:09;;;;;;;10.15;4.93;;;10.80;57.60;;;;;;5055977;28;20029;-76
2021/12/18 14:39:42;;;;;;;8.40;4.80;;;10.80;57.30;;;;;;5051045;28;20128;-76
2021/12/18 14:42:14;;;;;;;10.15;5.65;;;10.80;58.50;;;;;;5036435;28;20025;-76
2021/12/18 14:44:46;;;;;;;11.00;5.75;;;10.80;58.30;;;;;;5035953;28;20044;-75
2021/12/18 14:47:21;;;;;;;8.25;5.43;;;10.90;58.70;;;;;;5031559;28;20132;-75
2021/12/18 14:49:59;;;;;;;8.27;5.15;;;10.80;58.70;;;;;;5016234;28;20038;-75
2021/12/18 14:52:26;;;;;;;7.65;5.03;;;10.80;58.90;;;;;;5031200;28;20021;-79